createdAt,value
2017-09-14T00:00:05.981Z,2.73
2017-09-14T00:02:08.445Z,2.60
2017-09-14T00:04:11.023Z,4.07
2017-09-14T00:06:13.514Z,4.03
2017-09-14T00:08:15.969Z,3.73
2017-09-14T00:10:18.500Z,5.80
2017-09-14T00:12:20.946Z,2.03
2017-09-14T00:14:23.412Z,2.97
2017-09-14T00:16:25.875Z,2.93
2017-09-14T00:18:28.352Z,3.20
2017-09-14T00:20:30.890Z,3.00
2017-09-14T00:22:33.397Z,2.47
2017-09-14T00:24:35.892Z,3.20
2017-09-14T00:26:38.405Z,2.60
2017-09-14T00:28:40.829Z,3.10
2017-09-14T00:30:43.257Z,2.80
2017-09-14T00:32:45.721Z,3.50
2017-09-14T00:34:48.165Z,3.60
2017-09-14T00:36:50.647Z,2.50
2017-09-14T00:38:53.100Z,3.10
2017-09-14T00:40:55.634Z,3.43
2017-09-14T00:42:58.073Z,2.87
2017-09-14T00:45:00.636Z,3.53
2017-09-14T00:47:03.101Z,2.07
2017-09-14T00:49:05.524Z,2.80
2017-09-14T00:51:08.106Z,4.33
2017-09-14T00:53:10.586Z,2.03
2017-09-14T00:55:13.024Z,1.87
2017-09-14T00:57:15.615Z,4.23
2017-09-14T00:59:18.128Z,2.97
2017-09-14T01:01:20.647Z,1.63
2017-09-14T01:03:23.127Z,1.50
2017-09-14T01:05:25.564Z,3.37
2017-09-14T01:07:28.053Z,3.80
2017-09-14T01:09:30.506Z,2.87
2017-09-14T01:11:32.985Z,6.20
2017-09-14T01:13:35.457Z,5.20
2017-09-14T01:15:45.822Z,1.80
2017-09-14T01:17:48.280Z,6.17
2017-09-14T01:19:50.816Z,2.33
2017-09-14T01:21:53.266Z,2.00
2017-09-14T01:23:55.718Z,1.90
2017-09-14T01:25:58.147Z,2.63
2017-09-14T01:28:00.614Z,1.47
2017-09-14T01:30:03.116Z,2.93
2017-09-14T01:32:05.637Z,3.00
2017-09-14T01:34:08.096Z,1.30
2017-09-14T01:36:10.545Z,3.20
2017-09-14T01:38:13.151Z,2.20
2017-09-14T01:40:15.620Z,2.17
2017-09-14T01:42:18.070Z,2.20
2017-09-14T01:44:20.644Z,2.23
2017-09-14T01:46:23.166Z,2.70
2017-09-14T01:48:25.613Z,2.13
2017-09-14T01:50:28.175Z,1.50
2017-09-14T01:52:30.705Z,3.30
2017-09-14T01:54:33.144Z,2.60
2017-09-14T01:56:35.644Z,3.27
2017-09-14T01:58:38.209Z,4.70
2017-09-14T02:00:40.641Z,3.77
2017-09-14T02:02:43.185Z,4.33
2017-09-14T02:04:45.774Z,3.43
2017-09-14T02:06:48.261Z,3.03
2017-09-14T02:08:50.728Z,2.40
2017-09-14T02:10:53.350Z,2.63
2017-09-14T02:12:55.868Z,2.90
2017-09-14T02:14:58.372Z,2.60
2017-09-14T02:17:01.056Z,2.67
2017-09-14T02:19:03.485Z,4.50
2017-09-14T02:21:05.916Z,2.20
2017-09-14T02:23:08.380Z,3.10
2017-09-14T02:25:10.818Z,2.23
2017-09-14T02:27:13.261Z,3.57
2017-09-14T02:29:15.755Z,2.83
2017-09-14T02:31:18.336Z,3.80
2017-09-14T02:33:20.789Z,2.83
2017-09-14T02:35:23.261Z,2.10
2017-09-14T02:37:25.762Z,1.63
2017-09-14T02:39:28.283Z,2.17
2017-09-14T02:41:30.758Z,3.90
2017-09-14T02:43:33.264Z,2.33
2017-09-14T02:45:35.701Z,2.27
2017-09-14T02:47:38.231Z,2.20
2017-09-14T02:49:40.685Z,3.37
2017-09-14T02:51:43.140Z,3.03
2017-09-14T02:53:45.726Z,2.20
2017-09-14T02:55:48.223Z,2.37
2017-09-14T02:57:50.655Z,3.03
2017-09-14T02:59:53.173Z,2.57
2017-09-14T03:01:55.739Z,3.07
2017-09-14T03:03:58.260Z,2.87
2017-09-14T03:06:00.718Z,3.80
2017-09-14T03:08:03.254Z,3.70
2017-09-14T03:10:05.722Z,3.77
2017-09-14T03:12:08.188Z,2.63
2017-09-14T03:14:10.741Z,2.90
2017-09-14T03:16:13.674Z,4.43
2017-09-14T03:18:16.163Z,4.50
2017-09-14T03:20:18.709Z,2.07
2017-09-14T03:22:21.175Z,2.07
2017-09-14T03:24:23.651Z,2.90
2017-09-14T03:26:26.178Z,2.50
2017-09-14T03:28:28.646Z,3.13
2017-09-14T03:30:31.105Z,2.83
2017-09-14T03:32:33.631Z,4.50
2017-09-14T03:34:36.075Z,1.43
2017-09-14T03:36:38.573Z,1.83
2017-09-14T03:38:41.110Z,2.30
2017-09-14T03:40:43.673Z,2.30
2017-09-14T03:42:46.125Z,1.63
2017-09-14T03:44:48.584Z,2.10
2017-09-14T03:46:51.017Z,2.97
2017-09-14T03:48:53.494Z,2.40
2017-09-14T03:50:55.963Z,2.13
2017-09-14T03:52:58.515Z,2.70
2017-09-14T03:55:01.116Z,1.90
2017-09-14T03:57:03.540Z,2.37
2017-09-14T03:59:06.033Z,3.50
2017-09-14T04:01:08.517Z,3.97
2017-09-14T04:03:11.049Z,2.53
2017-09-14T04:05:13.489Z,2.20
2017-09-14T04:07:15.965Z,4.40
2017-09-14T04:09:18.430Z,2.50
2017-09-14T04:11:20.873Z,2.27
2017-09-14T04:13:23.375Z,2.20
2017-09-14T04:15:26.020Z,2.60
2017-09-14T04:17:28.463Z,4.00
2017-09-14T04:19:31.004Z,2.50
2017-09-14T04:21:33.471Z,3.10
2017-09-14T04:23:36.104Z,2.53
2017-09-14T04:25:38.677Z,2.60
2017-09-14T04:27:41.248Z,2.30
2017-09-14T04:29:43.913Z,1.70
2017-09-14T04:31:46.465Z,2.40
2017-09-14T04:33:48.917Z,2.30
2017-09-14T04:35:51.392Z,4.00
2017-09-14T04:37:53.968Z,1.40
2017-09-14T04:39:56.447Z,3.10
2017-09-14T04:41:59.268Z,3.60
2017-09-14T04:44:01.765Z,3.53
2017-09-14T04:46:04.284Z,2.03
2017-09-14T04:48:06.730Z,2.40
2017-09-14T04:50:09.217Z,2.47
2017-09-14T04:52:11.708Z,3.93
2017-09-14T04:54:14.146Z,3.33
2017-09-14T04:56:16.700Z,3.27
2017-09-14T04:58:19.138Z,1.20
2017-09-14T05:00:21.707Z,2.80
2017-09-14T05:02:24.221Z,3.73
2017-09-14T05:04:26.741Z,2.77
2017-09-14T05:06:29.222Z,5.67
2017-09-14T05:08:31.879Z,1.57
2017-09-14T05:10:34.509Z,3.43
2017-09-14T05:12:37.040Z,2.20
2017-09-14T05:14:39.773Z,4.40
2017-09-14T05:16:42.230Z,4.90
2017-09-14T05:18:44.781Z,2.50
2017-09-14T05:20:47.344Z,2.27
2017-09-14T05:22:49.784Z,2.97
2017-09-14T05:24:52.339Z,2.13
2017-09-14T05:26:54.802Z,2.73
2017-09-14T05:28:57.372Z,2.00
2017-09-14T05:30:59.859Z,4.83
2017-09-14T05:33:02.442Z,1.50
2017-09-14T05:35:05.328Z,2.00
2017-09-14T05:37:07.846Z,2.10
2017-09-14T05:39:10.320Z,3.40
2017-09-14T05:41:12.793Z,4.97
2017-09-14T05:43:15.240Z,3.30
2017-09-14T05:45:17.688Z,3.17
2017-09-14T05:47:20.116Z,4.77
2017-09-14T05:49:22.984Z,1.93
2017-09-14T05:51:25.728Z,2.03
2017-09-14T05:53:28.253Z,3.03
2017-09-14T05:55:30.755Z,2.23
2017-09-14T05:57:33.349Z,2.07
2017-09-14T05:59:36.020Z,1.87
2017-09-14T06:01:38.665Z,1.73
2017-09-14T06:03:41.786Z,3.13
2017-09-14T06:05:44.333Z,3.00
2017-09-14T06:07:46.781Z,2.13
2017-09-14T06:09:49.404Z,3.37
2017-09-14T06:11:52.154Z,2.97
2017-09-14T06:13:56.467Z,2.10
2017-09-14T06:15:58.924Z,1.97
2017-09-14T06:18:01.496Z,2.90
2017-09-14T06:20:03.989Z,3.53
2017-09-14T06:22:06.461Z,2.60
2017-09-14T06:24:09.730Z,1.83
2017-09-14T06:26:12.261Z,2.20
2017-09-14T06:28:15.373Z,3.50
2017-09-14T06:30:17.856Z,1.53
2017-09-14T06:32:20.308Z,1.80
2017-09-14T06:34:22.761Z,1.80
2017-09-14T06:36:25.252Z,2.17
2017-09-14T06:38:27.688Z,3.13
2017-09-14T06:40:30.309Z,1.53
2017-09-14T06:42:32.809Z,1.50
2017-09-14T06:44:35.357Z,3.93
2017-09-14T06:46:37.860Z,4.40
2017-09-14T06:48:40.361Z,2.60
2017-09-14T06:50:42.865Z,2.03
2017-09-14T06:52:45.333Z,2.77
2017-09-14T06:54:47.814Z,4.17
2017-09-14T06:56:50.353Z,2.00
2017-09-14T06:58:52.882Z,2.50
2017-09-14T07:00:55.855Z,5.10
2017-09-14T07:02:58.452Z,2.13
2017-09-14T07:05:00.904Z,2.80
2017-09-14T07:07:03.397Z,3.80
2017-09-14T07:09:05.851Z,2.60
2017-09-14T07:11:08.314Z,2.70
2017-09-14T07:13:10.913Z,5.60
2017-09-14T07:15:13.400Z,3.43
2017-09-14T07:17:15.889Z,2.63
2017-09-14T07:19:18.694Z,3.37
2017-09-14T07:21:22.248Z,1.67
2017-09-14T07:23:24.851Z,2.57
2017-09-14T07:25:27.300Z,2.97
2017-09-14T07:27:29.948Z,2.83
2017-09-14T07:29:32.459Z,2.07
2017-09-14T07:31:34.896Z,2.03
2017-09-14T07:33:37.321Z,2.70
2017-09-14T07:35:39.828Z,2.40
2017-09-14T07:37:42.293Z,4.20
2017-09-14T07:39:44.846Z,4.27
2017-09-14T07:41:47.383Z,2.37
2017-09-14T07:43:50.884Z,3.43
2017-09-14T07:45:53.487Z,3.23
2017-09-14T07:47:56.090Z,2.07
2017-09-14T07:49:58.647Z,3.90
2017-09-14T07:52:01.229Z,1.83
2017-09-14T07:54:03.741Z,4.87
2017-09-14T07:56:06.621Z,3.03
2017-09-14T07:58:09.085Z,1.60
2017-09-14T08:00:11.633Z,4.77
2017-09-14T08:02:14.244Z,3.63
2017-09-14T08:04:16.676Z,2.87
2017-09-14T08:06:19.175Z,2.63
2017-09-14T08:08:22.606Z,3.50
2017-09-14T08:10:25.147Z,1.70
2017-09-14T08:12:27.728Z,3.87
2017-09-14T08:14:30.164Z,2.73
2017-09-14T08:16:32.650Z,2.67
2017-09-14T08:18:35.224Z,2.10
2017-09-14T08:20:37.796Z,2.47
2017-09-14T08:22:40.305Z,4.67
2017-09-14T08:24:43.665Z,3.20
2017-09-14T08:26:46.177Z,4.30
2017-09-14T08:28:48.625Z,3.53
2017-09-14T08:30:51.247Z,3.17
2017-09-14T08:32:54.701Z,1.97
2017-09-14T08:34:57.192Z,2.37
2017-09-14T08:36:59.769Z,3.03
2017-09-14T08:39:02.392Z,2.27
2017-09-14T08:41:04.889Z,4.57
2017-09-14T08:43:07.384Z,2.60
2017-09-14T08:45:09.824Z,2.43
2017-09-14T08:47:12.471Z,5.70
2017-09-14T08:49:14.977Z,3.60
2017-09-14T08:51:17.594Z,2.50
2017-09-14T08:53:20.051Z,2.50
2017-09-14T08:55:22.560Z,2.30
2017-09-14T08:57:25.076Z,6.87
2017-09-14T08:59:27.661Z,2.83
2017-09-14T09:01:30.233Z,4.70
2017-09-14T09:03:32.728Z,4.90
2017-09-14T09:05:35.256Z,2.63
2017-09-14T09:07:38.246Z,1.80
2017-09-14T09:09:40.702Z,3.30
2017-09-14T09:11:43.151Z,3.57
2017-09-14T09:13:45.678Z,2.90
2017-09-14T09:15:48.251Z,2.17
2017-09-14T09:17:50.849Z,2.67
2017-09-14T09:19:53.300Z,4.43
2017-09-14T09:21:55.749Z,2.93
2017-09-14T09:23:58.215Z,5.57
2017-09-14T09:26:00.705Z,3.90
2017-09-14T09:28:03.144Z,2.00
2017-09-14T09:30:05.649Z,3.60
2017-09-14T09:32:08.127Z,2.43
2017-09-14T09:34:10.614Z,10.30
2017-09-14T09:36:13.078Z,9.30
2017-09-14T09:38:15.533Z,5.93
2017-09-14T09:40:18.028Z,4.10
2017-09-14T09:42:20.496Z,2.17
2017-09-14T09:44:23.102Z,5.33
2017-09-14T09:46:25.594Z,2.60
2017-09-14T09:48:28.073Z,12.20
2017-09-14T09:50:30.533Z,3.13
2017-09-14T09:52:33.050Z,3.40
2017-09-14T09:54:35.533Z,7.83
2017-09-14T09:56:38.009Z,8.53
2017-09-14T09:58:40.520Z,3.77
2017-09-14T10:00:42.991Z,5.30
2017-09-14T10:02:46.081Z,5.27
2017-09-14T10:04:48.690Z,3.00
2017-09-14T10:06:51.240Z,9.57
2017-09-14T10:08:53.739Z,4.40
2017-09-14T10:10:56.207Z,2.80
2017-09-14T10:12:58.733Z,2.40
2017-09-14T10:15:01.240Z,3.27
2017-09-14T10:17:04.650Z,5.67
2017-09-14T10:19:07.153Z,9.93
2017-09-14T10:21:10.728Z,3.13
2017-09-14T10:23:13.280Z,4.33
2017-09-14T10:25:15.865Z,3.40
2017-09-14T10:27:18.384Z,4.33
2017-09-14T10:29:20.837Z,2.67
2017-09-14T10:31:23.277Z,2.53
2017-09-14T10:33:25.840Z,3.10
2017-09-14T10:35:28.482Z,3.67
2017-09-14T10:37:31.085Z,5.43
2017-09-14T10:39:33.618Z,3.13
2017-09-14T10:41:36.060Z,5.17
2017-09-14T10:43:38.521Z,5.70
2017-09-14T10:45:41.139Z,32.70
2017-09-14T10:47:43.634Z,87.00
2017-09-14T10:49:46.153Z,159.03
2017-09-14T10:51:48.735Z,167.23
2017-09-14T10:53:51.237Z,204.37
2017-09-14T10:55:53.765Z,244.13
2017-09-14T10:57:56.345Z,215.90
2017-09-14T10:59:58.791Z,227.00
2017-09-14T11:02:01.275Z,243.70
2017-09-14T11:04:04.012Z,226.20
2017-09-14T11:06:06.584Z,180.83
2017-09-14T11:08:09.030Z,211.70
2017-09-14T11:10:11.521Z,201.60
2017-09-14T11:12:14.053Z,207.33
2017-09-14T11:14:16.671Z,211.47
2017-09-14T11:16:19.173Z,202.90
2017-09-14T11:18:21.645Z,205.90
2017-09-14T11:20:24.326Z,194.60
2017-09-14T11:22:26.828Z,186.57
2017-09-14T11:24:29.313Z,193.50
2017-09-14T11:26:31.842Z,155.00
2017-09-14T11:28:34.585Z,174.63
2017-09-14T11:30:37.048Z,168.67
2017-09-14T11:32:39.581Z,165.50
2017-09-14T11:34:42.102Z,176.67
2017-09-14T11:36:44.667Z,147.40
2017-09-14T11:38:47.234Z,155.57
2017-09-14T11:40:49.710Z,120.33
2017-09-14T11:42:52.157Z,130.83
2017-09-14T11:44:54.612Z,129.63
2017-09-14T11:46:57.179Z,139.77
2017-09-14T11:48:59.664Z,121.13
2017-09-14T11:51:02.162Z,112.57
2017-09-14T11:53:04.640Z,111.30
2017-09-14T11:55:07.110Z,117.13
2017-09-14T11:57:09.576Z,103.97
2017-09-14T11:59:12.173Z,93.13
2017-09-14T12:01:14.637Z,102.03
2017-09-14T12:03:17.125Z,103.03
2017-09-14T12:05:19.981Z,102.93
2017-09-14T12:07:23.370Z,105.73
2017-09-14T12:09:25.840Z,106.03
2017-09-14T12:11:28.399Z,86.23
2017-09-14T12:13:30.856Z,104.57
2017-09-14T12:15:33.371Z,96.03
2017-09-14T12:17:35.853Z,97.10
2017-09-14T12:19:38.375Z,89.77
2017-09-14T12:21:40.955Z,79.03
2017-09-14T12:23:43.523Z,71.53
2017-09-14T12:25:46.005Z,71.97
2017-09-14T12:27:48.653Z,61.90
2017-09-14T12:29:51.270Z,61.47
2017-09-14T12:31:53.724Z,64.00
2017-09-14T12:33:56.183Z,51.43
2017-09-14T12:35:58.692Z,52.10
2017-09-14T12:38:01.282Z,48.20
2017-09-14T12:40:03.777Z,43.90
2017-09-14T12:42:06.352Z,54.97
2017-09-14T12:44:08.821Z,55.90
2017-09-14T12:46:11.295Z,45.57
2017-09-14T12:48:13.869Z,43.77
2017-09-14T12:50:16.372Z,38.67
2017-09-14T12:52:18.842Z,40.47
2017-09-14T12:54:21.340Z,39.17
2017-09-14T12:56:23.840Z,31.77
2017-09-14T12:58:26.287Z,43.43
2017-09-14T13:00:28.768Z,36.47
2017-09-14T13:02:31.229Z,38.73
2017-09-14T13:04:33.748Z,46.00
2017-09-14T13:06:36.731Z,34.70
2017-09-14T13:08:39.218Z,37.90
2017-09-14T13:10:41.773Z,45.93
2017-09-14T13:12:44.307Z,40.37
2017-09-14T13:14:46.777Z,39.60
2017-09-14T13:16:49.251Z,38.00
2017-09-14T13:18:51.742Z,38.97
2017-09-14T13:20:54.252Z,41.93
2017-09-14T13:22:56.722Z,44.93
2017-09-14T13:24:59.268Z,42.30
2017-09-14T13:27:01.744Z,39.30
2017-09-14T13:29:04.313Z,45.43
2017-09-14T13:31:06.819Z,50.23
2017-09-14T13:33:09.400Z,49.07
2017-09-14T13:35:11.862Z,41.60
2017-09-14T13:37:14.373Z,39.60
2017-09-14T13:39:16.851Z,38.20
2017-09-14T13:41:19.294Z,39.63
2017-09-14T13:43:21.909Z,38.30
2017-09-14T13:45:24.482Z,36.53
2017-09-14T13:47:26.929Z,35.27
2017-09-14T13:49:29.445Z,45.50
2017-09-14T13:51:31.995Z,44.60
2017-09-14T13:53:34.438Z,43.37
2017-09-14T13:55:36.913Z,37.43
2017-09-14T13:57:39.360Z,36.13
2017-09-14T13:59:41.812Z,34.67
2017-09-14T14:01:44.451Z,32.00
2017-09-14T14:03:47.844Z,39.63
2017-09-14T14:05:50.301Z,43.07
2017-09-14T14:07:52.885Z,39.17
2017-09-14T14:09:55.342Z,34.83
2017-09-14T14:11:57.822Z,39.20
2017-09-14T14:14:00.322Z,32.77
2017-09-14T14:16:02.773Z,35.87
2017-09-14T14:18:05.237Z,34.43
2017-09-14T14:20:07.751Z,35.37
2017-09-14T14:22:10.278Z,29.50
2017-09-14T14:24:12.725Z,33.47
2017-09-14T14:26:15.272Z,41.00
2017-09-14T14:28:17.793Z,29.13
2017-09-14T14:30:20.361Z,33.37
2017-09-14T14:32:22.876Z,35.93
2017-09-14T14:34:25.380Z,28.90
2017-09-14T14:36:27.978Z,33.87
2017-09-14T14:38:30.461Z,37.83
2017-09-14T14:40:32.984Z,25.90
2017-09-14T14:42:35.437Z,18.77
2017-09-14T14:44:37.930Z,20.00
2017-09-14T14:46:40.429Z,19.70
2017-09-14T14:48:42.872Z,16.10
2017-09-14T14:50:45.438Z,13.47
2017-09-14T14:52:47.910Z,19.47
2017-09-14T14:54:50.376Z,14.07
2017-09-14T14:56:52.994Z,15.10
2017-09-14T14:58:55.456Z,12.30
2017-09-14T15:00:57.925Z,10.90
2017-09-14T15:03:00.413Z,9.30
2017-09-14T15:05:02.878Z,9.03
2017-09-14T15:07:05.340Z,14.87
2017-09-14T15:09:08.012Z,18.33
2017-09-14T15:11:10.590Z,17.33
2017-09-14T15:13:13.049Z,18.87
2017-09-14T15:15:15.549Z,15.90
2017-09-14T15:17:18.107Z,12.80
2017-09-14T15:19:20.601Z,15.87
2017-09-14T15:21:23.166Z,20.40
2017-09-14T15:23:25.640Z,15.23
2017-09-14T15:25:28.096Z,11.67
2017-09-14T15:27:30.588Z,22.87
2017-09-14T15:29:33.045Z,18.70
2017-09-14T15:31:35.486Z,11.47
2017-09-14T15:33:37.963Z,22.20
2017-09-14T15:35:40.440Z,13.40
2017-09-14T15:37:48.433Z,17.63
2017-09-14T15:39:56.546Z,14.53
2017-09-14T15:41:59.007Z,15.43
2017-09-14T15:44:07.207Z,13.27
2017-09-14T15:46:09.731Z,8.93
2017-09-14T15:48:17.923Z,20.77
2017-09-14T15:50:26.112Z,14.67
2017-09-14T15:52:28.596Z,20.80
2017-09-14T15:54:31.056Z,14.10
2017-09-14T15:56:33.601Z,14.13
2017-09-14T15:58:36.224Z,11.27
2017-09-14T16:00:38.687Z,17.63
2017-09-14T16:02:41.158Z,10.67
2017-09-14T16:04:43.632Z,15.17
2017-09-14T16:06:46.120Z,10.37
2017-09-14T16:08:49.547Z,10.40
2017-09-14T16:10:52.156Z,10.93
2017-09-14T16:12:54.608Z,14.40
2017-09-14T16:14:57.060Z,14.93
2017-09-14T16:16:59.532Z,12.97
2017-09-14T16:19:01.998Z,15.30
2017-09-14T16:21:04.446Z,11.70
2017-09-14T16:23:06.904Z,13.33
2017-09-14T16:25:09.356Z,12.30
2017-09-14T16:27:11.809Z,8.87
2017-09-14T16:29:14.410Z,15.43
2017-09-14T16:31:16.929Z,13.47
2017-09-14T16:33:19.432Z,14.30
2017-09-14T16:35:22.005Z,14.30
2017-09-14T16:37:24.467Z,10.33
2017-09-14T16:39:26.917Z,22.97
2017-09-14T16:41:29.415Z,17.67
2017-09-14T16:43:31.904Z,11.37
2017-09-14T16:45:34.368Z,15.23
2017-09-14T16:47:36.838Z,17.37
2017-09-14T16:49:39.322Z,19.90
2017-09-14T16:51:41.804Z,14.33
2017-09-14T16:53:44.277Z,15.43
2017-09-14T16:55:46.731Z,11.17
2017-09-14T16:57:49.185Z,11.80
2017-09-14T16:59:51.649Z,9.90
2017-09-14T17:01:54.185Z,15.70
2017-09-14T17:03:56.653Z,8.37
2017-09-14T17:05:59.209Z,14.40
2017-09-14T17:08:01.689Z,11.63
2017-09-14T17:10:04.158Z,10.13
2017-09-14T17:12:06.849Z,12.40
2017-09-14T17:14:09.388Z,10.93
2017-09-14T17:16:11.909Z,14.70
2017-09-14T17:18:14.468Z,15.87
2017-09-14T17:20:16.939Z,10.60
2017-09-14T17:22:19.388Z,13.53
2017-09-14T17:24:21.849Z,9.23
2017-09-14T17:26:24.308Z,9.97
2017-09-14T17:28:26.769Z,13.13
2017-09-14T17:30:29.284Z,10.40
2017-09-14T17:32:31.736Z,15.23
2017-09-14T17:34:34.172Z,11.23
2017-09-14T17:36:36.686Z,7.90
2017-09-14T17:38:39.128Z,14.50
2017-09-14T17:40:41.655Z,13.63
2017-09-14T17:42:44.212Z,11.17
2017-09-14T17:44:46.685Z,6.60
2017-09-14T17:46:49.129Z,10.50
2017-09-14T17:48:51.696Z,16.43
2017-09-14T17:50:54.181Z,12.30
2017-09-14T17:52:56.617Z,12.13
2017-09-14T17:54:59.122Z,12.60
2017-09-14T17:57:01.572Z,15.47
2017-09-14T17:59:04.047Z,8.30
2017-09-14T18:01:06.568Z,14.13
2017-09-14T18:03:09.011Z,17.47
2017-09-14T18:05:11.520Z,10.93
2017-09-14T18:07:14.260Z,13.33
2017-09-14T18:09:16.797Z,9.47
2017-09-14T18:11:19.254Z,9.40
2017-09-14T18:13:21.828Z,9.57
2017-09-14T18:15:24.337Z,12.30
2017-09-14T18:17:26.812Z,13.93
2017-09-14T18:19:29.313Z,9.50
2017-09-14T18:21:31.962Z,8.50
2017-09-14T18:23:34.423Z,9.60
2017-09-14T18:25:36.897Z,11.27
2017-09-14T18:27:39.338Z,8.10
2017-09-14T18:29:41.801Z,13.30
2017-09-14T18:31:44.268Z,12.20
2017-09-14T18:33:46.706Z,6.47
2017-09-14T18:35:49.307Z,12.00
2017-09-14T18:37:51.819Z,8.47
2017-09-14T18:39:54.389Z,5.63
2017-09-14T18:41:56.858Z,9.53
2017-09-14T18:43:59.676Z,10.67
2017-09-14T18:46:02.313Z,12.17
2017-09-14T18:48:05.774Z,11.60
2017-09-14T18:50:08.848Z,6.53
2017-09-14T18:52:11.922Z,8.93
2017-09-14T18:54:14.419Z,8.20
2017-09-14T18:56:16.916Z,11.10
2017-09-14T18:58:19.392Z,8.83
2017-09-14T19:00:21.989Z,10.70
2017-09-14T19:02:24.487Z,8.67
2017-09-14T19:04:27.224Z,6.63
2017-09-14T19:06:29.712Z,7.60
2017-09-14T19:08:32.250Z,7.03
2017-09-14T19:10:34.692Z,10.40
2017-09-14T19:12:37.142Z,8.63
2017-09-14T19:14:39.822Z,7.90
2017-09-14T19:16:42.265Z,9.33
2017-09-14T19:18:44.787Z,7.00
2017-09-14T19:20:47.264Z,8.87
2017-09-14T19:22:49.774Z,7.23
2017-09-14T19:24:52.277Z,13.27
2017-09-14T19:26:54.833Z,7.50
2017-09-14T19:28:57.322Z,7.97
2017-09-14T19:30:59.853Z,16.63
2017-09-14T19:33:02.373Z,7.43
2017-09-14T19:35:04.828Z,7.17
2017-09-14T19:37:07.283Z,6.20
2017-09-14T19:39:09.746Z,5.63
2017-09-14T19:41:12.206Z,5.77
2017-09-14T19:43:14.653Z,7.33
2017-09-14T19:45:17.208Z,11.70
2017-09-14T19:47:19.796Z,6.90
2017-09-14T19:49:22.349Z,9.03
2017-09-14T19:51:24.834Z,7.33
2017-09-14T19:53:27.274Z,12.63
2017-09-14T19:55:29.882Z,8.40
2017-09-14T19:57:32.401Z,9.43
2017-09-14T19:59:34.872Z,8.97
2017-09-14T20:01:37.458Z,5.47
2017-09-14T20:03:39.929Z,8.20
2017-09-14T20:05:42.510Z,6.90
2017-09-14T20:07:44.984Z,10.20
2017-09-14T20:09:47.592Z,10.47
2017-09-14T20:11:50.154Z,8.27
2017-09-14T20:13:52.738Z,5.87
2017-09-14T20:15:55.521Z,4.80
2017-09-14T20:17:58.086Z,5.43
2017-09-14T20:20:00.591Z,7.37
2017-09-14T20:22:03.123Z,6.90
2017-09-14T20:24:05.559Z,6.90
2017-09-14T20:26:08.072Z,6.60
2017-09-14T20:28:10.561Z,4.60
2017-09-14T20:30:13.004Z,7.10
2017-09-14T20:32:15.466Z,7.93
2017-09-14T20:34:18.047Z,7.13
2017-09-14T20:36:20.542Z,7.00
2017-09-14T20:38:22.982Z,7.80
2017-09-14T20:40:25.474Z,8.40
2017-09-14T20:42:27.947Z,6.00
2017-09-14T20:44:30.397Z,6.33
2017-09-14T20:46:32.899Z,7.90
2017-09-14T20:48:35.450Z,5.53
2017-09-14T20:50:37.916Z,9.87
2017-09-14T20:52:40.480Z,5.73
2017-09-14T20:54:42.950Z,8.53
2017-09-14T20:56:45.418Z,14.23
2017-09-14T20:58:48.172Z,7.83
2017-09-14T21:00:50.640Z,6.63
2017-09-14T21:02:53.079Z,6.57
2017-09-14T21:04:55.709Z,4.93
2017-09-14T21:06:58.148Z,6.13
2017-09-14T21:09:00.587Z,5.70
2017-09-14T21:11:03.055Z,5.07
2017-09-14T21:13:05.635Z,8.57
2017-09-14T21:15:08.064Z,7.13
2017-09-14T21:17:10.579Z,7.20
2017-09-14T21:19:13.068Z,6.10
2017-09-14T21:21:15.517Z,5.57
2017-09-14T21:23:17.987Z,4.73
2017-09-14T21:25:20.420Z,4.50
2017-09-14T21:27:22.909Z,4.93
2017-09-14T21:29:25.381Z,6.10
2017-09-14T21:31:27.868Z,9.70
2017-09-14T21:33:30.304Z,8.87
2017-09-14T21:35:32.772Z,5.20
2017-09-14T21:37:35.229Z,5.37
2017-09-14T21:39:37.688Z,6.30
2017-09-14T21:41:40.279Z,7.33
2017-09-14T21:43:42.847Z,9.40
2017-09-14T21:45:45.282Z,6.23
2017-09-14T21:47:47.825Z,7.10
2017-09-14T21:49:50.297Z,9.13
2017-09-14T21:51:52.832Z,5.53
2017-09-14T21:53:55.365Z,6.33
2017-09-14T21:55:57.870Z,4.53
2017-09-14T21:58:00.302Z,5.40
2017-09-14T22:00:02.793Z,8.17
2017-09-14T22:02:05.253Z,6.13
2017-09-14T22:04:07.719Z,7.53
2017-09-14T22:06:10.336Z,7.20
2017-09-14T22:08:12.905Z,4.80
2017-09-14T22:10:15.380Z,7.03
2017-09-14T22:12:18.024Z,5.60
2017-09-14T22:14:20.598Z,6.23
2017-09-14T22:16:23.102Z,6.20
2017-09-14T22:18:25.698Z,5.63
2017-09-14T22:20:28.165Z,5.07
2017-09-14T22:22:30.699Z,6.87
2017-09-14T22:24:33.213Z,4.90
2017-09-14T22:26:35.680Z,5.73
2017-09-14T22:28:38.160Z,6.70
2017-09-14T22:30:40.724Z,3.80
2017-09-14T22:32:43.185Z,6.63
2017-09-14T22:34:46.550Z,5.33
2017-09-14T22:36:49.038Z,3.77
2017-09-14T22:38:51.693Z,5.90
2017-09-14T22:40:54.163Z,3.50
2017-09-14T22:42:56.680Z,5.00
2017-09-14T22:44:59.130Z,4.27
2017-09-14T22:47:01.766Z,11.27
2017-09-14T22:49:04.400Z,3.40
2017-09-14T22:51:06.873Z,4.50
2017-09-14T22:53:09.500Z,5.80
2017-09-14T22:55:11.967Z,7.00
2017-09-14T22:57:14.404Z,6.07
2017-09-14T22:59:16.846Z,4.60
2017-09-14T23:01:19.418Z,3.60
2017-09-14T23:03:21.953Z,4.60
2017-09-14T23:05:24.415Z,4.07
2017-09-14T23:07:26.880Z,4.30
2017-09-14T23:09:29.322Z,5.30
2017-09-14T23:11:31.835Z,4.40
2017-09-14T23:13:34.506Z,5.20
2017-09-14T23:15:36.957Z,7.00
2017-09-14T23:17:39.397Z,4.53
2017-09-14T23:19:42.156Z,3.53
2017-09-14T23:21:44.592Z,3.60
2017-09-14T23:23:47.033Z,4.67
2017-09-14T23:25:49.622Z,6.20
2017-09-14T23:27:52.245Z,3.70
2017-09-14T23:29:54.689Z,4.30
2017-09-14T23:31:57.353Z,3.53
2017-09-14T23:33:59.803Z,5.53
2017-09-14T23:36:02.342Z,5.13
2017-09-14T23:38:04.818Z,4.13
2017-09-14T23:40:07.269Z,7.43
2017-09-14T23:42:09.754Z,6.47
2017-09-14T23:44:12.292Z,3.50
2017-09-14T23:46:14.744Z,5.37
2017-09-14T23:48:17.236Z,6.10
2017-09-14T23:50:19.734Z,6.23
2017-09-14T23:52:22.361Z,4.13
2017-09-14T23:54:24.832Z,4.77
2017-09-14T23:56:27.340Z,5.37
2017-09-14T23:58:29.801Z,4.00
